Ceres, West Virginia
Current Conditions -  °F | °C
As of 5:52 PM on Wednesday 17 Dec 2014 (Local Time) from KBLF Reporting Station
Clear Clear  
Wind Chill: 31°   Ceiling: Unl
Heat Index: 36°   Visibility: 10mi
Dew Point: 27°   Wind: 6mph
Humidity: 70%   Direction: 290°WNW
Pressure: 30.08"   Gusts: NA
Location:  37.2994°N, 81.226°W
Report Text: KBLF 172252Z AUTO 29005KT 10SM CLR 02/M03 A3008 RMK AO2 SLP194 T00221028
Loading
Personal Weather Stations






























Interactive Weather Map New forecast layout! Learn more

10-Day Weather Forecast

Advertisements
Track Severe Weather on mobile